Time;durP1;ratioP1;P1;durP2;ratioP2;P2;SDS_P1;SDS_P2;PMS_P1;PMS_P2;Temp;Humidity;BMP_temperature;BMP_pressure;BME280_temperature;BME280_humidity;BME280_pressure;Samples;Min_cycle;Max_cycle;Signal;HPM_P1;HPM_P2
2021/11/09 00:00:48;;;;;;;19.85;9.88;;;11.90;95.20;;;;;;5028858;28;20050;-56
2021/11/09 00:03:16;;;;;;;21.83;10.20;;;11.90;95.20;;;;;;5030347;28;20049;-56
2021/11/09 00:08:25;;;;;;;15.82;9.55;;;11.90;95.20;;;;;;5027142;28;20053;-55
2021/11/09 00:10:52;;;;;;;18.10;9.13;;;12.00;95.20;;;;;;5034066;28;20045;-57
2021/11/09 00:13:19;;;;;;;17.35;9.52;;;12.00;95.20;;;;;;5028477;28;20049;-55
2021/11/09 00:15:46;;;;;;;18.33;9.13;;;12.00;95.40;;;;;;5027030;28;20045;-56
2021/11/09 00:18:13;;;;;;;16.88;8.38;;;12.00;95.30;;;;;;5031981;28;20098;-57
2021/11/09 00:20:40;;;;;;;14.32;8.43;;;12.00;95.40;;;;;;5027288;28;20045;-60
2021/11/09 00:23:08;;;;;;;17.50;9.63;;;12.00;95.50;;;;;;5026851;28;20406;-57
2021/11/09 00:25:35;;;;;;;18.70;8.88;;;12.00;95.50;;;;;;5027625;28;20045;-56
2021/11/09 00:28:03;;;;;;;18.35;10.00;;;12.00;95.50;;;;;;5031237;28;20068;-57
2021/11/09 00:30:30;;;;;;;21.35;9.48;;;12.00;95.50;;;;;;4687266;28;10000502;-56
2021/11/09 00:32:57;;;;;;;15.85;8.50;;;12.10;95.50;;;;;;5031400;28;20100;-56
2021/11/09 00:35:26;;;;;;;20.75;9.63;;;12.10;95.60;;;;;;5038373;28;20045;-59
2021/11/09 00:37:53;;;;;;;18.10;8.25;;;12.10;95.80;;;;;;5036080;28;20053;-60
2021/11/09 00:40:22;;;;;;;19.55;9.30;;;12.00;95.80;;;;;;5047235;28;20048;-61
2021/11/09 00:42:49;;;;;;;14.45;8.20;;;12.10;95.90;;;;;;5031023;28;20045;-59
2021/11/09 00:45:16;;;;;;;16.60;8.45;;;12.10;95.90;;;;;;5037714;28;20056;-60
2021/11/09 00:47:43;;;;;;;14.45;8.45;;;12.10;96.00;;;;;;5029152;28;20048;-60
2021/11/09 00:50:11;;;;;;;18.77;9.20;;;12.10;95.90;;;;;;5036123;28;20275;-59
2021/11/09 00:52:38;;;;;;;18.55;9.30;;;12.10;95.90;;;;;;5027958;28;20053;-59
2021/11/09 00:55:06;;;;;;;16.60;9.07;;;12.10;96.10;;;;;;5028240;28;20309;-60
2021/11/09 00:57:32;;;;;;;15.77;9.32;;;12.20;95.90;;;;;;5028340;28;20140;-60
2021/11/09 00:59:59;;;;;;;19.30;10.27;;;12.20;95.90;;;;;;5027475;28;20041;-59
2021/11/09 01:02:26;;;;;;;17.88;9.57;;;12.20;95.90;;;;;;5028535;28;20132;-60
2021/11/09 01:04:53;;;;;;;21.77;11.55;;;12.20;96.00;;;;;;5033099;28;20114;-59
2021/11/09 01:07:20;;;;;;;21.00;9.75;;;12.20;96.10;;;;;;5032515;28;20041;-58
2021/11/09 01:09:46;;;;;;;17.13;10.30;;;12.20;96.10;;;;;;5035904;28;20050;-59
2021/11/09 01:12:13;;;;;;;19.20;10.52;;;12.20;96.00;;;;;;5029677;28;20455;-59
2021/11/09 01:14:40;;;;;;;18.75;10.73;;;12.20;96.00;;;;;;5029962;28;20144;-58
2021/11/09 01:17:07;;;;;;;18.55;10.52;;;12.20;96.10;;;;;;5029343;28;20061;-59
2021/11/09 01:19:34;;;;;;;18.00;10.07;;;12.20;96.10;;;;;;5034851;28;20095;-59
2021/11/09 01:22:02;;;;;;;18.67;10.20;;;12.30;96.20;;;;;;5029656;28;20059;-59
2021/11/09 01:24:29;;;;;;;19.00;9.70;;;12.30;96.10;;;;;;5029849;28;20049;-59
2021/11/09 01:26:56;;;;;;;18.35;10.05;;;12.30;96.20;;;;;;5029048;28;20126;-59
2021/11/09 01:29:23;;;;;;;16.08;10.68;;;12.30;96.20;;;;;;5028389;28;20061;-60
2021/11/09 01:31:52;;;;;;;16.02;9.63;;;12.30;96.20;;;;;;5028805;28;20076;-59
2021/11/09 01:34:20;;;;;;;18.08;9.32;;;12.30;96.20;;;;;;5028859;28;20052;-59
2021/11/09 01:36:46;;;;;;;19.10;10.27;;;12.30;96.70;;;;;;5027019;28;20049;-60
2021/11/09 01:39:13;;;;;;;17.35;9.25;;;12.30;96.30;;;;;;5036518;28;20099;-59
2021/11/09 01:41:40;;;;;;;15.38;8.90;;;12.30;96.70;;;;;;5035616;28;20062;-60
2021/11/09 01:44:07;;;;;;;16.17;9.65;;;12.40;96.60;;;;;;5029660;28;20041;-59
2021/11/09 01:46:34;;;;;;;16.10;9.15;;;12.30;96.40;;;;;;5028336;28;20053;-60
2021/11/09 01:49:01;;;;;;;17.17;9.07;;;12.30;96.40;;;;;;5028362;28;20041;-60
2021/11/09 01:51:29;;;;;;;15.82;9.13;;;12.30;96.40;;;;;;5028710;28;20046;-60
2021/11/09 01:53:56;;;;;;;14.80;9.48;;;12.40;96.50;;;;;;5037015;28;20049;-61
2021/11/09 01:56:26;;;;;;;18.98;10.25;;;12.40;96.50;;;;;;5027187;28;20038;-60
2021/11/09 01:58:53;;;;;;;17.33;9.05;;;12.40;96.50;;;;;;5028349;28;20461;-59
2021/11/09 02:01:20;;;;;;;16.95;9.52;;;12.30;96.60;;;;;;5027582;28;20045;-61
2021/11/09 02:03:50;;;;;;;20.33;10.25;;;12.30;96.60;;;;;;5027179;28;20095;-60
2021/11/09 02:06:18;;;;;;;19.30;9.80;;;12.30;96.70;;;;;;5037422;28;20044;-60
2021/11/09 02:08:45;;;;;;;16.20;9.13;;;12.30;96.80;;;;;;5033903;28;20048;-60
2021/11/09 02:11:12;;;;;;;17.60;10.63;;;12.30;96.90;;;;;;5030237;28;20103;-62
2021/11/09 02:13:39;;;;;;;19.50;9.82;;;12.30;96.80;;;;;;5036621;28;20261;-60
2021/11/09 02:16:06;;;;;;;14.50;8.73;;;12.30;96.90;;;;;;5028102;28;20068;-60
2021/11/09 02:18:33;;;;;;;16.05;10.07;;;12.30;96.80;;;;;;5028601;28;20041;-60
2021/11/09 02:21:03;;;;;;;18.23;11.05;;;12.40;97.00;;;;;;5033736;28;20500;-60
2021/11/09 02:23:32;;;;;;;19.48;10.43;;;12.40;96.80;;;;;;5027738;28;20045;-60
2021/11/09 02:25:58;;;;;;;19.77;9.98;;;12.40;96.80;;;;;;5030321;28;20057;-59
2021/11/09 02:28:25;;;;;;;21.35;11.82;;;12.40;96.90;;;;;;5027628;28;20046;-60
2021/11/09 02:30:52;;;;;;;16.10;9.90;;;12.40;96.80;;;;;;5027185;28;20132;-60
2021/11/09 02:33:19;;;;;;;20.30;10.43;;;12.40;96.80;;;;;;4678196;28;10000405;-59
2021/11/09 02:35:46;;;;;;;18.95;10.25;;;12.50;96.80;;;;;;5027137;28;20052;-60
2021/11/09 02:38:13;;;;;;;15.57;9.77;;;12.50;96.90;;;;;;5035294;28;20037;-59
2021/11/09 02:40:40;;;;;;;21.77;11.55;;;12.50;96.80;;;;;;5031965;28;20079;-60
2021/11/09 02:43:09;;;;;;;18.17;10.52;;;12.50;96.80;;;;;;5026266;28;20049;-60
2021/11/09 02:45:51;;;;;;;16.48;10.52;;;12.50;96.80;;;;;;5035600;28;20500;-60
2021/11/09 02:48:29;;;;;;;16.85;9.50;;;12.50;96.80;;;;;;5031544;28;20140;-60
2021/11/09 02:51:09;;;;;;;16.20;8.95;;;12.50;96.70;;;;;;5030834;28;20053;-59
2021/11/09 02:54:01;;;;;;;17.10;9.13;;;12.50;96.80;;;;;;5027166;28;20091;-59
2021/11/09 02:56:31;;;;;;;15.35;9.35;;;12.50;96.80;;;;;;5039301;28;20095;-59
2021/11/09 02:59:14;;;;;;;17.40;10.80;;;12.60;96.80;;;;;;5027667;28;20080;-60
2021/11/09 03:04:33;;;;;;;13.70;7.93;;;12.60;96.70;;;;;;5027536;28;20053;-59
2021/11/09 03:07:05;;;;;;;15.43;8.93;;;12.60;96.90;;;;;;5029803;28;20038;-60
2021/11/09 03:12:06;;;;;;;13.13;7.20;;;12.60;96.80;;;;;;5036349;28;20143;-61
2021/11/09 03:14:33;;;;;;;12.77;8.05;;;12.60;96.70;;;;;;5031711;28;20045;-59
2021/11/09 03:17:05;;;;;;;10.38;6.82;;;12.60;96.70;;;;;;5031030;28;20077;-59
2021/11/09 03:20:06;;;;;;;14.85;7.85;;;12.70;96.70;;;;;;5031476;28;20045;-59
2021/11/09 03:44:52;;;;;;;6.65;4.45;;;12.80;96.40;;;;;;5034968;28;20103;-59
2021/11/09 03:47:21;;;;;;;10.18;5.13;;;12.80;96.40;;;;;;5025171;28;20093;-59
2021/11/09 03:49:49;;;;;;;12.35;5.93;;;12.80;96.30;;;;;;5030945;28;20144;-59
2021/11/09 03:52:21;;;;;;;8.77;4.95;;;12.80;96.30;;;;;;5024099;28;20081;-59
2021/11/09 03:54:56;;;;;;;7.68;5.22;;;12.80;96.30;;;;;;5030951;28;20092;-59
2021/11/09 03:57:27;;;;;;;12.82;5.95;;;12.80;96.40;;;;;;5038690;28;20096;-59
2021/11/09 04:04:51;;;;;;;7.45;4.10;;;12.80;96.00;;;;;;5029556;28;20575;-60
2021/11/09 04:09:54;;;;;;;8.35;3.95;;;12.90;95.90;;;;;;5037872;28;20124;-60
2021/11/09 04:39:44;;;;;;;4.07;2.55;;;12.80;95.60;;;;;;5030087;28;20183;-59
2021/11/09 04:53:22;;;;;;;5.10;2.40;;;12.90;95.40;;;;;;5031237;28;20084;-59
2021/11/09 05:09:52;;;;;;;5.43;2.65;;;12.80;95.30;;;;;;5029623;28;20099;-60
2021/11/09 05:12:07;;;;;;;4.28;2.40;;;12.80;95.30;;;;;;5028619;28;20071;-60
2021/11/09 05:14:34;;;;;;;4.90;2.63;;;12.80;95.30;;;;;;5026916;28;20540;-59
2021/11/09 05:17:01;;;;;;;5.32;2.22;;;12.90;95.30;;;;;;5029710;28;20080;-60
2021/11/09 05:19:28;;;;;;;3.50;2.60;;;12.90;95.30;;;;;;5032786;28;20068;-60
2021/11/09 05:21:55;;;;;;;5.53;2.88;;;12.90;95.30;;;;;;5032270;28;20068;-60
2021/11/09 05:24:22;;;;;;;5.93;3.00;;;12.90;95.30;;;;;;5029407;28;20049;-59
2021/11/09 05:26:49;;;;;;;9.05;3.35;;;12.80;95.40;;;;;;5028344;28;20057;-59
2021/11/09 05:29:16;;;;;;;5.03;2.63;;;12.80;95.30;;;;;;5028966;28;20076;-59
2021/11/09 05:31:43;;;;;;;6.60;3.25;;;12.80;95.60;;;;;;5028553;28;20050;-60
2021/11/09 05:34:10;;;;;;;4.57;2.55;;;12.90;95.30;;;;;;5027908;28;20038;-60
2021/11/09 05:36:40;;;;;;;3.47;2.72;;;12.90;95.30;;;;;;5029250;28;20049;-60
2021/11/09 05:41:40;;;;;;;4.53;2.75;;;12.90;95.30;;;;;;5038220;28;20080;-59
2021/11/09 05:44:07;;;;;;;5.82;2.80;;;12.80;95.50;;;;;;5034910;28;20116;-59
2021/11/09 05:46:38;;;;;;;10.45;4.18;;;12.80;95.40;;;;;;5038875;28;20322;-59
2021/11/09 05:49:05;;;;;;;5.10;3.55;;;12.70;95.50;;;;;;5029963;28;20091;-59
2021/11/09 05:51:32;;;;;;;11.65;4.20;;;12.80;95.40;;;;;;5037060;28;20353;-59
2021/11/09 05:54:00;;;;;;;5.28;3.50;;;12.70;95.40;;;;;;5036246;28;20087;-58
2021/11/09 05:56:27;;;;;;;4.72;3.38;;;12.70;95.50;;;;;;5038879;28;20061;-59
2021/11/09 05:58:54;;;;;;;5.25;3.58;;;12.70;95.50;;;;;;5032535;28;20110;-60
2021/11/09 06:01:21;;;;;;;7.32;3.40;;;12.70;95.60;;;;;;5036501;28;20048;-60
2021/11/09 06:03:48;;;;;;;5.68;3.30;;;12.70;95.50;;;;;;5032610;28;20087;-60
2021/11/09 06:06:15;;;;;;;6.18;3.50;;;12.70;95.60;;;;;;5039134;28;20083;-61
2021/11/09 06:08:42;;;;;;;9.20;3.05;;;12.70;95.60;;;;;;5026698;28;20087;-60
2021/11/09 06:11:09;;;;;;;4.43;2.85;;;12.70;95.70;;;;;;5029755;28;20101;-60
2021/11/09 06:13:36;;;;;;;5.10;2.83;;;12.70;95.60;;;;;;5031196;28;20049;-60
2021/11/09 06:16:02;;;;;;;5.47;2.97;;;12.70;95.70;;;;;;5034905;28;20080;-60
2021/11/09 06:18:29;;;;;;;8.23;2.90;;;12.70;95.70;;;;;;5035759;28;20053;-60
2021/11/09 06:20:56;;;;;;;5.93;2.80;;;12.80;95.70;;;;;;5034719;28;20072;-59
2021/11/09 06:23:23;;;;;;;5.35;2.60;;;12.70;95.70;;;;;;5036210;28;20103;-60
2021/11/09 06:25:49;;;;;;;5.30;2.58;;;12.70;95.80;;;;;;5031672;28;20121;-59
2021/11/09 06:28:19;;;;;;;8.25;2.42;;;12.70;95.70;;;;;;5033721;28;20504;-59
2021/11/09 06:30:46;;;;;;;2.58;1.95;;;12.70;95.70;;;;;;5034737;28;20068;-59
2021/11/09 06:33:14;;;;;;;7.15;2.22;;;12.80;95.80;;;;;;5035808;28;20049;-59
2021/11/09 06:35:41;;;;;;;5.65;2.38;;;12.70;95.70;;;;;;5025186;28;20046;-59
2021/11/09 06:38:08;;;;;;;5.78;2.08;;;12.70;95.70;;;;;;5029813;28;20057;-60
2021/11/09 06:40:34;;;;;;;5.40;2.00;;;12.80;95.70;;;;;;5028612;28;20077;-59
2021/11/09 06:43:01;;;;;;;3.45;1.70;;;12.70;95.60;;;;;;5027377;28;20053;-59
2021/11/09 06:45:28;;;;;;;4.03;1.73;;;12.70;95.60;;;;;;5034011;28;20068;-59
2021/11/09 06:47:55;;;;;;;4.45;1.58;;;12.70;95.60;;;;;;5036798;28;20084;-58
2021/11/09 06:50:22;;;;;;;5.05;1.95;;;12.70;95.60;;;;;;5039100;28;20076;-59
2021/11/09 06:52:49;;;;;;;2.85;1.98;;;12.80;95.70;;;;;;5038787;28;20468;-59
2021/11/09 06:55:16;;;;;;;4.78;2.00;;;12.70;95.60;;;;;;5038611;28;20077;-59
2021/11/09 06:57:43;;;;;;;3.80;1.92;;;12.70;95.60;;;;;;5040771;28;20639;-59
2021/11/09 07:00:12;;;;;;;5.80;1.90;;;12.70;95.50;;;;;;5034621;28;20041;-58
2021/11/09 07:02:39;;;;;;;4.03;1.90;;;12.70;95.30;;;;;;5023919;28;20106;-59
2021/11/09 07:05:07;;;;;;;4.47;2.00;;;12.70;95.20;;;;;;5031378;28;20095;-59
2021/11/09 07:07:34;;;;;;;6.70;1.95;;;12.60;95.20;;;;;;5028768;28;20050;-59
2021/11/09 07:10:01;;;;;;;3.25;2.08;;;12.60;95.20;;;;;;5032864;28;20551;-59
2021/11/09 07:12:27;;;;;;;4.20;2.28;;;12.60;95.20;;;;;;5026109;28;20144;-58
2021/11/09 07:14:54;;;;;;;2.97;2.03;;;12.50;95.20;;;;;;5035463;28;20198;-59
2021/11/09 07:17:21;;;;;;;7.28;2.15;;;12.50;95.20;;;;;;5026961;28;20049;-59
2021/11/09 07:19:51;;;;;;;9.07;1.90;;;12.50;95.20;;;;;;5036594;28;20061;-58
2021/11/09 07:22:23;;;;;;;3.28;1.83;;;12.40;95.20;;;;;;5028824;28;20152;-59
2021/11/09 07:24:50;;;;;;;2.17;1.75;;;12.40;95.20;;;;;;5028603;28;20053;-59
2021/11/09 07:27:17;;;;;;;4.93;2.13;;;12.40;95.20;;;;;;5027907;28;20128;-60
2021/11/09 07:29:48;;;;;;;8.25;2.50;;;12.40;95.30;;;;;;5034145;28;20475;-59
2021/11/09 07:32:16;;;;;;;6.75;2.25;;;12.40;95.40;;;;;;5030012;28;20610;-59
2021/11/09 07:34:44;;;;;;;5.43;2.20;;;12.40;95.50;;;;;;5033205;28;20061;-56
2021/11/09 07:37:11;;;;;;;2.40;1.77;;;12.40;95.50;;;;;;5033895;28;20106;-58
2021/11/09 07:39:38;;;;;;;6.28;2.33;;;12.40;95.50;;;;;;5034143;28;20119;-59
2021/11/09 07:42:07;;;;;;;7.55;2.88;;;12.40;95.50;;;;;;5035223;28;20077;-58
2021/11/09 07:44:33;;;;;;;2.75;1.80;;;12.40;95.50;;;;;;5038171;28;20122;-59
2021/11/09 07:47:00;;;;;;;6.60;1.90;;;12.40;95.50;;;;;;5030187;28;20129;-58
2021/11/09 07:49:29;;;;;;;4.10;2.05;;;12.40;95.40;;;;;;5032881;28;20128;-58
2021/11/09 07:51:57;;;;;;;3.92;1.77;;;12.40;95.40;;;;;;5035867;28;20485;-58
2021/11/09 07:54:30;;;;;;;2.88;1.70;;;12.40;95.40;;;;;;5040917;28;20136;-59
2021/11/09 07:57:02;;;;;;;3.28;1.92;;;12.40;95.40;;;;;;5026819;28;20053;-58
2021/11/09 07:59:33;;;;;;;4.15;1.70;;;12.30;95.30;;;;;;5029773;28;20548;-59
2021/11/09 08:02:26;;;;;;;6.55;3.05;;;12.40;95.40;;;;;;5030116;28;20053;-59
2021/11/09 08:05:00;;;;;;;5.68;2.47;;;12.30;95.40;;;;;;5025023;28;20125;-57
2021/11/09 08:07:32;;;;;;;3.55;2.05;;;12.40;95.50;;;;;;5029865;28;20128;-59
2021/11/09 08:09:58;;;;;;;9.18;2.70;;;12.40;95.50;;;;;;5034853;28;20048;-59
2021/11/09 08:12:25;;;;;;;6.00;2.78;;;12.40;95.50;;;;;;5030692;28;20661;-58
2021/11/09 08:14:52;;;;;;;6.40;2.58;;;12.40;95.60;;;;;;5013970;28;20045;-59
2021/11/09 08:17:19;;;;;;;4.53;2.28;;;12.40;95.60;;;;;;5037537;28;20118;-59
2021/11/09 08:19:46;;;;;;;6.10;2.33;;;12.40;95.50;;;;;;5039678;28;20362;-59
2021/11/09 08:22:13;;;;;;;2.40;1.30;;;12.40;95.50;;;;;;5028681;28;20130;-59
2021/11/09 08:24:40;;;;;;;2.92;2.10;;;12.40;95.40;;;;;;5028223;28;20511;-59
2021/11/09 08:27:10;;;;;;;4.07;1.30;;;12.50;95.40;;;;;;5035304;28;20088;-59
2021/11/09 08:29:37;;;;;;;3.85;1.50;;;12.50;95.20;;;;;;5028632;28;20156;-58
2021/11/09 08:32:09;;;;;;;2.45;1.30;;;12.50;95.00;;;;;;5028489;28;20063;-59
2021/11/09 08:34:35;;;;;;;5.22;0.98;;;12.50;95.00;;;;;;5034453;28;20069;-60
2021/11/09 08:37:03;;;;;;;3.47;1.10;;;12.50;94.80;;;;;;5040007;28;20045;-59
2021/11/09 08:39:36;;;;;;;3.75;1.08;;;12.60;94.80;;;;;;5038577;28;20153;-59
2021/11/09 08:44:40;;;;;;;1.73;0.85;;;12.70;94.60;;;;;;5027996;28;20115;-59
2021/11/09 08:47:07;;;;;;;4.45;1.40;;;12.70;94.10;;;;;;5029306;28;20132;-59
2021/11/09 08:49:34;;;;;;;6.63;1.23;;;12.70;94.30;;;;;;5028822;28;20049;-60
2021/11/09 08:52:05;;;;;;;4.28;1.17;;;12.70;94.40;;;;;;5030903;28;20041;-59
2021/11/09 08:54:35;;;;;;;1.55;0.90;;;12.70;94.40;;;;;;5030601;28;20091;-59
2021/11/09 08:57:21;;;;;;;9.63;1.42;;;12.70;94.70;;;;;;5037263;28;20155;-59
2021/11/09 09:05:18;;;;;;;1.55;0.70;;;12.80;94.30;;;;;;5026036;28;20046;-59
2021/11/09 09:07:45;;;;;;;3.67;0.98;;;12.80;94.30;;;;;;5036153;28;20053;-59
2021/11/09 09:10:13;;;;;;;3.25;1.70;;;12.90;94.30;;;;;;5028213;28;20092;-60
2021/11/09 09:12:41;;;;;;;3.28;1.50;;;12.90;94.30;;;;;;5034829;28;20049;-60
2021/11/09 09:15:13;;;;;;;3.40;1.50;;;12.90;94.20;;;;;;5028821;28;20455;-60
2021/11/09 09:17:40;;;;;;;2.67;0.90;;;13.00;94.10;;;;;;5033753;28;20103;-60
2021/11/09 09:20:21;;;;;;;3.30;1.20;;;13.00;94.10;;;;;;5029591;28;20080;-60
2021/11/09 09:23:03;;;;;;;5.65;1.05;;;13.20;94.20;;;;;;5036208;28;20529;-60
2021/11/09 09:31:18;;;;;;;6.32;2.20;;;13.10;93.90;;;;;;5034638;28;20041;-60
2021/11/09 09:53:22;;;;;;;4.55;1.33;;;13.50;93.40;;;;;;5037256;28;20136;-65
2021/11/09 09:55:55;;;;;;;3.92;0.63;;;13.60;93.30;;;;;;5035456;28;20080;-60
2021/11/09 09:58:22;;;;;;;4.43;0.98;;;13.60;92.90;;;;;;5034416;28;20048;-60
2021/11/09 10:00:49;;;;;;;2.97;0.88;;;13.70;92.80;;;;;;5034377;28;20505;-59
2021/11/09 10:03:15;;;;;;;2.45;0.75;;;13.70;92.90;;;;;;5042213;28;20068;-59
2021/11/09 10:05:42;;;;;;;0.40;0.40;;;13.80;93.00;;;;;;5026765;28;20081;-59
2021/11/09 10:08:17;;;;;;;1.95;0.70;;;13.80;92.50;;;;;;5030809;28;20475;-59
2021/11/09 10:10:45;;;;;;;5.50;1.10;;;13.80;92.30;;;;;;5035807;28;20059;-59
2021/11/09 10:13:20;;;;;;;3.53;0.70;;;13.90;92.70;;;;;;5026614;28;20092;-59
2021/11/09 10:15:52;;;;;;;2.47;0.65;;;14.00;92.00;;;;;;5026031;28;20543;-57
2021/11/09 10:18:21;;;;;;;2.47;0.75;;;14.00;92.40;;;;;;5023562;28;20054;-58
2021/11/09 10:20:57;;;;;;;1.05;0.60;;;14.10;92.40;;;;;;5035844;28;20080;-63
2021/11/09 10:23:26;;;;;;;4.72;1.20;;;14.10;91.70;;;;;;5024405;28;20115;-59
2021/11/09 10:25:59;;;;;;;3.17;0.70;;;14.10;92.20;;;;;;5027494;28;20530;-59
2021/11/09 10:28:26;;;;;;;3.47;1.35;;;14.10;92.20;;;;;;5033438;28;20107;-59
2021/11/09 10:30:58;;;;;;;1.80;1.00;;;14.20;92.40;;;;;;4676966;28;10000026;-60
2021/11/09 10:33:26;;;;;;;2.55;1.00;;;14.20;92.10;;;;;;5022086;28;20313;-59
2021/11/09 10:35:53;;;;;;;2.95;1.58;;;14.20;92.10;;;;;;5024833;28;20523;-59
2021/11/09 10:38:31;;;;;;;7.72;1.05;;;14.30;92.20;;;;;;5032457;28;20118;-59
2021/11/09 10:41:00;;;;;;;8.25;1.38;;;14.30;91.90;;;;;;5031343;28;20045;-58
2021/11/09 10:43:28;;;;;;;1.50;0.80;;;14.30;92.00;;;;;;4674341;28;10000064;-62
2021/11/09 10:45:55;;;;;;;2.53;0.90;;;14.30;92.10;;;;;;5021419;28;20080;-59
2021/11/09 10:48:23;;;;;;;4.38;1.20;;;14.40;92.10;;;;;;5024405;28;20041;-59
2021/11/09 10:50:56;;;;;;;4.63;1.45;;;14.40;91.90;;;;;;5028976;28;20077;-60
2021/11/09 10:53:35;;;;;;;2.95;1.17;;;14.40;91.50;;;;;;5025923;28;20088;-59
2021/11/09 10:56:27;;;;;;;4.47;1.17;;;14.50;91.70;;;;;;5025993;28;20037;-58
2021/11/09 11:04:04;;;;;;;1.63;0.80;;;14.70;91.30;;;;;;5026818;28;20101;-59
2021/11/09 11:06:33;;;;;;;3.22;0.85;;;14.80;91.20;;;;;;5034639;28;20336;-58
2021/11/09 11:09:08;;;;;;;1.58;0.60;;;14.80;90.80;;;;;;5026775;28;20050;-58
2021/11/09 11:11:59;;;;;;;1.05;0.50;;;14.70;90.80;;;;;;5031977;28;20048;-60
2021/11/09 11:14:29;;;;;;;1.98;0.75;;;14.80;91.00;;;;;;5022391;28;20049;-60
2021/11/09 11:16:59;;;;;;;4.53;0.90;;;14.80;90.80;;;;;;5033374;28;20050;-58
2021/11/09 11:19:39;;;;;;;2.05;0.70;;;14.80;90.20;;;;;;5028994;28;20045;-58
2021/11/09 11:22:08;;;;;;;5.18;0.98;;;14.80;90.20;;;;;;5026307;28;20045;-59
2021/11/09 11:24:35;;;;;;;5.65;2.13;;;14.90;90.90;;;;;;5030183;28;20148;-59
2021/11/09 11:27:04;;;;;;;3.25;1.02;;;14.90;90.70;;;;;;5030644;28;20041;-59
2021/11/09 11:29:34;;;;;;;3.35;0.90;;;14.90;90.90;;;;;;5029127;28;20437;-59
2021/11/09 11:32:02;;;;;;;2.28;0.75;;;14.90;90.80;;;;;;5033953;28;20524;-59
2021/11/09 11:34:29;;;;;;;6.22;1.20;;;14.80;90.40;;;;;;5031790;28;20128;-59
2021/11/09 11:36:56;;;;;;;3.17;1.00;;;14.80;90.80;;;;;;5025888;28;20044;-59
2021/11/09 11:39:24;;;;;;;1.30;0.65;;;14.80;90.90;;;;;;5030935;28;20055;-60
2021/11/09 11:41:55;;;;;;;4.72;0.70;;;14.90;90.70;;;;;;5030517;28;20053;-59
2021/11/09 11:44:24;;;;;;;4.20;0.80;;;14.90;90.60;;;;;;5029312;28;20065;-59
2021/11/09 11:46:55;;;;;;;2.10;0.90;;;14.80;90.60;;;;;;5045054;28;20079;-58
2021/11/09 11:49:30;;;;;;;3.22;0.82;;;14.90;90.60;;;;;;5037715;28;20083;-59
2021/11/09 11:51:57;;;;;;;2.55;1.20;;;14.90;90.50;;;;;;5037634;28;20053;-59
2021/11/09 11:54:45;;;;;;;1.70;0.63;;;14.90;90.90;;;;;;5030147;28;20080;-60
2021/11/09 11:57:41;;;;;;;3.08;1.17;;;14.90;89.80;;;;;;5037202;28;20045;-59
2021/11/09 12:00:31;;;;;;;4.82;1.02;;;14.80;89.70;;;;;;5044593;28;20213;-59
2021/11/09 12:02:59;;;;;;;2.00;0.90;;;14.80;90.10;;;;;;5037444;28;20044;-58
2021/11/09 12:05:42;;;;;;;2.92;0.85;;;14.80;90.80;;;;;;5034775;28;20088;-58
2021/11/09 12:08:11;;;;;;;2.50;0.88;;;14.80;90.50;;;;;;5029801;28;20556;-59
2021/11/09 12:10:50;;;;;;;4.97;1.63;;;14.80;90.60;;;;;;5029604;28;20511;-59
2021/11/09 12:13:19;;;;;;;1.73;0.73;;;14.80;90.20;;;;;;5028799;28;20045;-59
2021/11/09 12:15:56;;;;;;;3.45;0.80;;;14.80;90.90;;;;;;5037759;28;20041;-59
2021/11/09 12:18:31;;;;;;;2.63;1.23;;;14.80;90.20;;;;;;5029904;28;20132;-59
2021/11/09 12:21:08;;;;;;;1.50;0.98;;;14.80;90.20;;;;;;5024652;28;20045;-60
2021/11/09 12:23:36;;;;;;;3.70;1.00;;;14.80;90.00;;;;;;5037287;28;20088;-60
2021/11/09 12:26:39;;;;;;;6.05;0.82;;;14.80;90.20;;;;;;5029408;28;20061;-59
2021/11/09 12:29:41;;;;;;;3.03;1.17;;;14.90;89.60;;;;;;5029959;28;20370;-58
2021/11/09 12:32:24;;;;;;;2.05;1.00;;;14.90;88.90;;;;;;5029534;28;20077;-59
2021/11/09 12:35:20;;;;;;;1.85;0.88;;;14.90;88.80;;;;;;5036996;28;20053;-59
2021/11/09 12:38:12;;;;;;;2.53;0.90;;;15.00;89.80;;;;;;5027955;28;20045;-58
2021/11/09 12:40:44;;;;;;;1.42;0.80;;;15.10;89.90;;;;;;5031319;28;20762;-59
2021/11/09 12:43:32;;;;;;;2.72;1.17;;;15.10;90.40;;;;;;5028623;28;20045;-59
2021/11/09 12:46:12;;;;;;;7.22;0.98;;;15.20;88.90;;;;;;5032635;28;20129;-60
2021/11/09 12:48:49;;;;;;;1.27;0.65;;;15.20;88.00;;;;;;5038776;28;20084;-59
2021/11/09 12:51:19;;;;;;;4.18;1.15;;;15.20;89.80;;;;;;4712008;28;10001262;-59
2021/11/09 12:53:48;;;;;;;2.30;1.08;;;15.30;90.20;;;;;;5026198;28;20383;-58
2021/11/09 12:56:29;;;;;;;3.17;1.10;;;15.40;90.00;;;;;;5026882;28;20096;-59
2021/11/09 12:59:03;;;;;;;1.75;0.93;;;15.40;88.20;;;;;;5028170;28;20080;-59
2021/11/09 13:10:09;;;;;;;3.55;0.82;;;15.30;90.00;;;;;;5041738;28;20361;-59
2021/11/09 13:12:36;;;;;;;3.78;0.93;;;15.30;89.40;;;;;;5028896;28;20050;-59
2021/11/09 13:15:14;;;;;;;3.35;0.90;;;15.30;90.00;;;;;;5028533;28;20152;-59
2021/11/09 13:17:46;;;;;;;3.58;1.10;;;15.40;89.00;;;;;;5028417;28;20132;-60
2021/11/09 13:22:56;;;;;;;10.60;0.95;;;15.20;90.00;;;;;;5036009;28;20041;-59
2021/11/09 13:25:42;;;;;;;4.93;1.00;;;15.20;88.90;;;;;;5030224;28;20078;-59
2021/11/09 13:28:13;;;;;;;3.45;1.13;;;15.20;89.00;;;;;;5028709;28;20578;-59
2021/11/09 13:31:04;;;;;;;1.25;0.90;;;15.10;90.10;;;;;;5033790;28;20048;-59
2021/11/09 13:33:32;;;;;;;2.15;0.77;;;15.10;89.20;;;;;;5025299;28;20371;-59
2021/11/09 13:35:59;;;;;;;2.13;0.75;;;15.10;90.20;;;;;;5029372;28;20140;-62
2021/11/09 13:38:35;;;;;;;5.45;1.40;;;15.10;90.10;;;;;;5028999;28;20046;-62
2021/11/09 13:41:15;;;;;;;3.30;1.13;;;15.10;90.00;;;;;;5027334;28;20075;-59
2021/11/09 13:43:46;;;;;;;3.63;1.15;;;15.00;90.10;;;;;;5035933;28;20131;-59
2021/11/09 13:46:15;;;;;;;1.92;0.75;;;15.00;90.10;;;;;;5030153;28;20049;-59
2021/11/09 13:48:45;;;;;;;3.67;0.90;;;15.00;89.40;;;;;;5027666;28;20581;-59
2021/11/09 13:51:13;;;;;;;3.30;0.80;;;14.90;90.00;;;;;;5036288;28;20045;-59
2021/11/09 13:53:43;;;;;;;2.58;1.92;;;15.00;90.00;;;;;;5029014;28;20045;-59
2021/11/09 13:56:14;;;;;;;1.25;0.80;;;15.00;89.70;;;;;;5026744;28;20045;-59
2021/11/09 13:58:58;;;;;;;0.57;0.52;;;15.00;89.90;;;;;;5027739;28;20513;-60
2021/11/09 14:01:38;;;;;;;1.80;1.52;;;15.00;89.10;;;;;;5024430;28;20496;-59
2021/11/09 14:04:24;;;;;;;2.80;0.88;;;14.90;89.80;;;;;;5033467;28;20080;-59
2021/11/09 14:12:23;;;;;;;2.58;1.17;;;14.90;89.40;;;;;;5032181;28;20755;-59
2021/11/09 14:17:34;;;;;;;4.80;1.10;;;14.90;90.00;;;;;;5028081;28;20416;-59
2021/11/09 14:20:11;;;;;;;2.72;1.20;;;14.90;90.50;;;;;;5028836;28;20559;-59
2021/11/09 14:22:38;;;;;;;2.47;1.15;;;14.90;90.10;;;;;;5023821;28;20041;-59
2021/11/09 14:25:06;;;;;;;1.23;0.70;;;14.80;90.10;;;;;;5027217;28;20488;-58
2021/11/09 14:27:36;;;;;;;1.80;0.80;;;14.80;90.10;;;;;;5027064;28;20072;-59
2021/11/09 14:30:04;;;;;;;1.90;0.90;;;14.90;89.90;;;;;;5027355;28;20045;-59
2021/11/09 14:32:33;;;;;;;2.20;1.10;;;14.80;90.00;;;;;;5027069;28;20053;-59
2021/11/09 14:35:08;;;;;;;3.35;1.30;;;14.80;90.10;;;;;;5026938;28;20068;-58
2021/11/09 14:38:00;;;;;;;2.20;0.90;;;14.80;90.00;;;;;;5027435;28;20181;-59
2021/11/09 14:40:53;;;;;;;4.30;1.40;;;14.80;90.10;;;;;;5024759;28;20524;-60
2021/11/09 14:43:28;;;;;;;2.25;1.00;;;14.80;90.10;;;;;;5022340;28;20414;-59
2021/11/09 14:46:04;;;;;;;2.25;1.52;;;14.80;90.30;;;;;;5028303;28;20084;-60
2021/11/09 14:48:50;;;;;;;3.25;1.15;;;14.80;90.30;;;;;;5032149;28;20059;-60
2021/11/09 14:51:26;;;;;;;4.10;1.10;;;14.90;90.10;;;;;;5027224;28;20063;-59
2021/11/09 14:56:34;;;;;;;1.35;0.77;;;14.80;90.20;;;;;;5027768;28;20057;-60
2021/11/09 14:59:08;;;;;;;6.30;1.25;;;14.80;90.20;;;;;;5025902;28;20042;-58
2021/11/09 15:01:59;;;;;;;5.03;1.00;;;14.80;90.40;;;;;;5019789;28;20087;-58
2021/11/09 15:07:21;;;;;;;2.58;1.05;;;14.90;90.40;;;;;;5029156;28;20132;-59
2021/11/09 15:29:14;;;;;;;2.92;0.70;;;16.10;87.20;;;;;;5025632;28;20045;-58
2021/11/09 15:31:59;;;;;;;1.52;1.02;;;15.70;86.90;;;;;;5033963;28;20595;-59
2021/11/09 15:34:50;;;;;;;4.93;1.23;;;15.50;88.00;;;;;;5019042;28;20048;-58
2021/11/09 15:39:50;;;;;;;1.25;0.80;;;15.20;88.60;;;;;;5034046;28;20140;-59
2021/11/09 15:42:17;;;;;;;5.78;1.73;;;15.20;88.60;;;;;;5034946;28;20496;-59
2021/11/09 15:44:44;;;;;;;5.03;1.50;;;15.10;88.50;;;;;;5029462;28;20041;-59
2021/11/09 15:47:11;;;;;;;4.07;1.92;;;15.00;88.40;;;;;;5036260;28;20095;-59
2021/11/09 15:49:38;;;;;;;3.13;1.00;;;15.00;88.20;;;;;;5025495;28;20054;-59
2021/11/09 15:52:05;;;;;;;1.40;0.93;;;14.80;87.80;;;;;;5028411;28;20097;-59
2021/11/09 15:54:47;;;;;;;2.67;0.85;;;14.70;87.90;;;;;;5026435;28;20067;-58
2021/11/09 15:57:14;;;;;;;1.85;0.93;;;14.70;88.40;;;;;;5028232;28;20114;-58
2021/11/09 15:59:41;;;;;;;1.45;0.82;;;14.60;88.40;;;;;;5026543;28;20042;-58